Aérodrome :
LOGIN :

S'inscrire | Disclaimer

   EN    FR    IT 

 










Légende :    VFR   VFR Marginal   IFR   IFR Intensif   IFR Très Intensif
Visi : 
Plafond : 
>= 8 km
>= 3000ft
5 à 8 km
1000 à 3000 ft
1500m à 5 km
500 à 1000 ft
800 à 1500m
200 à 500 ft
< 800m
< 200 ft
Symboles :   Orages  Brouillard  Fortes neiges  Fortes précipitations  Vent > 20 kt
SIGMETs :   Divers  Orages  Givrage  Turbulence  Onde Orograph.  Cendres Volcan.







- Altitude de l'aérodrome : 90 ft
- Code IATA : NTE
- Voir les cartes d'approche


LFRS - Nantes

DERNIER METAR :
  • 161930Z AUTO 27010KT CAVOK 21/16 Q1017 NOSIG

METARs EXPIRÉS :
  • 161900Z AUTO 27012KT CAVOK 22/16 Q1016 NOSIG
  • 161830Z AUTO 27013KT CAVOK 22/16 Q1016 NOSIG
  • 161800Z AUTO 26011KT CAVOK 23/16 Q1016 NOSIG
  • 161730Z AUTO 27013KT CAVOK 24/16 Q1016 NOSIG
  • 161700Z AUTO 28012KT 240V310 9999 FEW011 24/14 Q1015 TEMPO SHRA SCT050CB

TAF TAF LFRS
Valide du 16 à 18h jusqu'au 18 à 00h UTC


161700Z 1618/1724 27008KT CAVOK
ATIS : +33 2 40 05 12 74
Pas de NOTAMs connus pour ce terrain.
1 SIGMET publié pour la FIR Brest (LFRR) :
 
Orages noyés dans la masse
LFRR SIGMET 4 VALID 161800/162000 LFPW
LFRR BREST FIR/UIR EMBD TS FCST WI N4745 W00015 - N4630 W00015 - N4730 W00045 - N4745 W00015 TOP FL330 MOV E 15KT NC=



MET'MAP, la Météo Aéronautique d'un coup d'oeil ! - Copyright ORBIFLY Décembre 2007 - Disclaimer

ORBIFLY MET'MAP TEAM :

Programmation & Développement : Alexandra Zaïnal
Conception & Développement : Baudouin d'Aumeries
Co-Programmation & Développement : Marc-Olivier Méhu
Soutien technique & logistique : Manuel Goepfert

Contact : metmap@orbifly.com




SOURCES & CREDITS :

   NOAA